createdAt,value
2023-03-06T00:03:46.096Z,18.17
2023-03-06T00:08:45.838Z,18.11
2023-03-06T00:13:45.691Z,18.05
2023-03-06T00:18:45.497Z,17.96
2023-03-06T00:23:45.333Z,17.89
2023-03-06T00:28:45.177Z,17.84
2023-03-06T00:33:45.036Z,17.80
2023-03-06T00:38:44.845Z,17.74
2023-03-06T00:43:44.676Z,17.66
2023-03-06T00:48:44.542Z,17.62
2023-03-06T00:53:44.338Z,17.55
2023-03-06T00:58:44.147Z,17.53
2023-03-06T01:03:44.003Z,17.43
2023-03-06T01:08:43.825Z,17.42
2023-03-06T01:13:43.677Z,17.35
2023-03-06T01:18:43.498Z,17.30
2023-03-06T01:23:43.355Z,17.28
2023-03-06T01:28:43.210Z,17.24
2023-03-06T01:33:43.076Z,17.21
2023-03-06T01:38:42.949Z,17.14
2023-03-06T01:43:42.834Z,17.14
2023-03-06T01:48:42.710Z,17.07
2023-03-06T01:53:42.588Z,17.02
2023-03-06T01:58:42.453Z,17.00
2023-03-06T02:03:42.326Z,16.99
2023-03-06T02:08:42.192Z,16.96
2023-03-06T02:13:42.080Z,16.92
2023-03-06T02:18:41.952Z,16.91
2023-03-06T02:23:41.850Z,16.90
2023-03-06T02:28:41.781Z,16.85
2023-03-06T02:33:41.676Z,16.85
2023-03-06T02:38:41.602Z,16.84
2023-03-06T02:43:41.512Z,16.81
2023-03-06T02:48:41.429Z,16.78
2023-03-06T02:53:41.350Z,16.73
2023-03-06T02:58:41.261Z,16.70
2023-03-06T03:03:41.183Z,16.67
2023-03-06T03:08:41.105Z,16.69
2023-03-06T03:13:41.009Z,16.65
2023-03-06T03:18:40.909Z,16.67
2023-03-06T03:23:46.839Z,16.65
2023-03-06T03:28:40.773Z,16.63
2023-03-06T03:33:40.719Z,16.60
2023-03-06T03:38:40.634Z,16.60
2023-03-06T03:43:40.567Z,16.60
2023-03-06T03:48:40.488Z,16.55
2023-03-06T03:53:40.447Z,16.52
2023-03-06T03:58:40.384Z,16.51
2023-03-06T04:03:40.336Z,16.50
2023-03-06T04:08:40.261Z,16.45
2023-03-06T04:13:40.214Z,16.47
2023-03-06T04:18:40.163Z,16.47
2023-03-06T04:23:40.115Z,16.44
2023-03-06T04:28:40.039Z,16.42
2023-03-06T04:33:40.002Z,16.63
2023-03-06T04:38:39.974Z,17.24
2023-03-06T04:43:39.872Z,17.70
2023-03-06T04:48:39.785Z,17.99
2023-03-06T04:53:39.710Z,18.32
2023-03-06T04:58:39.624Z,18.59
2023-03-06T05:03:39.549Z,18.71
2023-03-06T05:08:39.409Z,18.56
2023-03-06T05:13:39.296Z,18.60
2023-03-06T05:18:39.205Z,18.66
2023-03-06T05:23:39.067Z,18.68
2023-03-06T05:28:39.025Z,18.75
2023-03-06T05:33:38.789Z,18.86
2023-03-06T05:38:38.662Z,18.83
2023-03-06T05:43:38.543Z,18.82
2023-03-06T05:48:38.400Z,18.97
2023-03-06T05:53:38.266Z,19.07
2023-03-06T05:58:38.098Z,19.07
2023-03-06T06:03:38.067Z,19.13
2023-03-06T06:08:37.846Z,19.20
2023-03-06T06:13:37.685Z,19.23
2023-03-06T06:18:39.821Z,19.38
2023-03-06T06:23:37.401Z,19.52
2023-03-06T06:28:37.238Z,19.64
2023-03-06T06:33:37.080Z,19.70
2023-03-06T06:38:36.926Z,19.78
2023-03-06T06:43:36.785Z,19.87
2023-03-06T06:48:36.644Z,20.05
2023-03-06T06:53:36.475Z,20.25
2023-03-06T06:58:36.261Z,20.42
2023-03-06T07:03:36.092Z,20.63
2023-03-06T07:08:35.855Z,20.81
2023-03-06T07:13:35.651Z,20.94
2023-03-06T07:18:35.425Z,21.09
2023-03-06T07:23:35.195Z,21.15
2023-03-06T07:28:49.842Z,21.13
2023-03-06T07:33:34.779Z,21.15
2023-03-06T07:38:34.540Z,21.18
2023-03-06T07:43:34.320Z,21.21
